createdAt,value
2018-11-20T00:01:58.431Z,0.30
2018-11-20T00:04:46.668Z,0.30
2018-11-20T00:07:24.365Z,0.33
2018-11-20T00:10:12.581Z,0.36
2018-11-20T00:13:00.339Z,0.36
2018-11-20T00:15:48.579Z,0.35
2018-11-20T00:18:37.237Z,0.36
2018-11-20T00:21:11.901Z,0.37
2018-11-20T00:24:00.928Z,0.37
2018-11-20T00:27:08.014Z,0.40
2018-11-20T00:35:56.875Z,0.38
2018-11-20T00:38:45.104Z,0.39
2018-11-20T00:47:28.143Z,0.41
2018-11-20T00:50:16.551Z,0.43
2018-11-20T00:59:03.884Z,0.50
2018-11-20T01:08:11.337Z,0.53
2018-11-20T01:10:59.632Z,0.54
2018-11-20T01:17:08.177Z,0.60
2018-11-20T01:22:59.540Z,0.63
2018-11-20T01:25:47.781Z,0.64
2018-11-20T01:28:36.132Z,0.65
2018-11-20T01:31:24.385Z,0.66
2018-11-20T01:37:39.520Z,0.71
2018-11-20T01:40:27.419Z,0.73
2018-11-20T01:43:07.235Z,0.75
2018-11-20T01:51:56.123Z,0.82
2018-11-20T01:54:44.471Z,0.82
2018-11-20T02:00:29.975Z,0.83
2018-11-20T02:03:18.317Z,0.73
2018-11-20T02:06:06.568Z,0.89
2018-11-20T02:08:54.889Z,0.92
2018-11-20T02:11:43.230Z,0.94
2018-11-20T02:14:54.397Z,0.97
2018-11-20T02:18:04.039Z,0.96
2018-11-20T02:23:57.615Z,1.04
2018-11-20T02:26:45.983Z,1.06
2018-11-20T02:35:28.228Z,1.14
2018-11-20T02:38:16.593Z,1.17
2018-11-20T02:41:04.796Z,1.22
2018-11-20T02:43:53.054Z,1.27
2018-11-20T02:52:35.214Z,1.24
2018-11-20T02:58:49.513Z,1.34
2018-11-20T03:01:28.814Z,1.34
2018-11-20T03:04:36.468Z,1.34
2018-11-20T03:13:12.606Z,1.41
2018-11-20T03:18:58.780Z,1.42
2018-11-20T03:21:35.295Z,1.42
2018-11-20T03:24:23.639Z,1.43
2018-11-20T03:27:11.944Z,1.45
2018-11-20T03:36:31.234Z,1.50
2018-11-20T03:39:19.595Z,1.50
2018-11-20T03:42:07.639Z,1.52
2018-11-20T03:47:52.822Z,1.58
2018-11-20T03:50:41.041Z,1.61
2018-11-20T03:53:29.316Z,1.65
2018-11-20T03:56:20.974Z,1.65
2018-11-20T03:59:08.164Z,1.67
2018-11-20T04:01:57.470Z,1.69
2018-11-20T04:04:45.733Z,1.69
2018-11-20T04:07:34.087Z,1.68
2018-11-20T04:13:27.971Z,1.72
2018-11-20T04:16:16.212Z,1.74
2018-11-20T04:19:04.507Z,1.75
2018-11-20T04:21:52.783Z,1.75
2018-11-20T04:33:56.329Z,1.77
2018-11-20T04:36:48.174Z,1.80
2018-11-20T04:39:37.054Z,1.83
2018-11-20T04:42:25.360Z,1.83
2018-11-20T04:51:13.541Z,1.86
2018-11-20T04:54:05.479Z,1.86
2018-11-20T04:59:50.635Z,1.86
2018-11-20T05:02:39.510Z,1.88
2018-11-20T05:05:40.455Z,1.87
2018-11-20T05:08:31.857Z,1.87
2018-11-20T05:17:14.471Z,1.90
2018-11-20T05:20:32.143Z,1.90
2018-11-20T05:23:20.374Z,1.90
2018-11-20T05:35:16.359Z,1.96
2018-11-20T05:38:04.617Z,1.95
2018-11-20T05:40:52.886Z,1.97
2018-11-20T05:43:41.172Z,1.99
2018-11-20T05:46:29.476Z,2.02
2018-11-20T05:49:17.749Z,2.05
2018-11-20T06:00:57.723Z,2.18
2018-11-20T06:06:50.133Z,2.23
2018-11-20T06:09:42.378Z,2.24
2018-11-20T06:12:30.650Z,2.23
2018-11-20T06:15:19.006Z,2.21
2018-11-20T06:18:07.277Z,2.16
2018-11-20T06:21:25.033Z,2.14
2018-11-20T06:24:13.381Z,2.11
2018-11-20T06:27:01.639Z,2.15
2018-11-20T06:35:44.380Z,2.15
2018-11-20T06:38:33.259Z,2.15
2018-11-20T06:41:21.682Z,2.15
2018-11-20T06:44:09.884Z,2.18
2018-11-20T06:49:55.919Z,2.18
2018-11-20T06:56:00.503Z,2.20
2018-11-20T06:58:48.765Z,2.19
2018-11-20T07:01:37.177Z,2.18
2018-11-20T07:04:25.438Z,2.18
2018-11-20T07:07:12.418Z,2.21
2018-11-20T07:10:00.856Z,2.21
2018-11-20T07:13:34.302Z,2.22
2018-11-20T07:16:42.913Z,2.22
2018-11-20T07:19:44.573Z,2.24
2018-11-20T07:22:34.755Z,2.25
2018-11-20T07:25:11.866Z,2.26
2018-11-20T07:31:01.180Z,2.26
2018-11-20T07:33:49.478Z,2.26
2018-11-20T07:39:21.208Z,2.27
2018-11-20T07:42:09.459Z,2.28
2018-11-20T07:44:52.776Z,2.27
2018-11-20T07:47:44.157Z,2.28
2018-11-20T07:50:33.884Z,2.28
2018-11-20T07:53:22.193Z,2.30
2018-11-20T07:59:30.558Z,2.31
2018-11-20T08:02:18.895Z,2.31
2018-11-20T08:05:07.157Z,2.33
2018-11-20T08:13:44.136Z,2.36
2018-11-20T08:16:19.305Z,2.40
2018-11-20T08:19:07.564Z,2.41
2018-11-20T08:21:55.863Z,2.43
2018-11-20T08:33:20.156Z,2.55
2018-11-20T08:36:08.369Z,2.61
2018-11-20T08:38:56.729Z,2.74
2018-11-20T08:45:01.193Z,2.88
2018-11-20T08:50:56.954Z,2.94
2018-11-20T08:53:48.170Z,2.97
2018-11-20T08:56:36.335Z,3.06
2018-11-20T08:59:18.555Z,3.13
2018-11-20T09:02:06.943Z,3.24
2018-11-20T09:07:51.589Z,3.29
2018-11-20T09:10:59.274Z,3.33
2018-11-20T09:17:13.646Z,3.43
2018-11-20T09:20:33.736Z,3.54
2018-11-20T09:26:26.899Z,3.56
2018-11-20T09:32:13.623Z,3.58
2018-11-20T09:41:34.821Z,3.81
2018-11-20T09:44:34.191Z,3.88
2018-11-20T09:47:22.552Z,3.98
2018-11-20T09:55:52.013Z,4.18
2018-11-20T09:58:40.265Z,4.25
2018-11-20T10:01:28.476Z,4.29
2018-11-20T10:04:11.522Z,4.41
2018-11-20T10:06:59.857Z,4.49
2018-11-20T10:09:48.112Z,4.58
2018-11-20T10:12:36.482Z,4.57
2018-11-20T10:24:35.349Z,4.66
2018-11-20T10:27:23.616Z,4.74
2018-11-20T10:30:11.969Z,4.76
2018-11-20T10:33:00.236Z,4.82
2018-11-20T10:35:48.513Z,4.86
2018-11-20T10:38:36.822Z,4.87
2018-11-20T10:47:50.502Z,4.94
2018-11-20T10:53:27.789Z,4.97
2018-11-20T10:59:18.966Z,4.99
2018-11-20T11:02:07.269Z,5.07
2018-11-20T11:04:55.607Z,5.11
2018-11-20T11:07:44.082Z,5.13
2018-11-20T11:13:30.325Z,5.16
2018-11-20T11:16:18.675Z,5.21
2018-11-20T11:19:06.970Z,5.20
2018-11-20T11:21:55.271Z,5.22
2018-11-20T11:24:44.144Z,5.20
2018-11-20T11:30:38.272Z,5.31
2018-11-20T11:39:44.786Z,5.51
2018-11-20T11:42:33.174Z,5.54
2018-11-20T11:45:21.435Z,5.59
2018-11-20T11:48:09.702Z,5.60
2018-11-20T11:50:58.023Z,5.62
2018-11-20T11:53:46.315Z,5.68
2018-11-20T11:56:34.673Z,5.74
2018-11-20T11:59:23.691Z,5.76
2018-11-20T12:05:38.292Z,5.85
2018-11-20T12:08:26.533Z,5.90
2018-11-20T12:11:14.813Z,5.92
2018-11-20T12:14:03.196Z,5.98
2018-11-20T12:16:51.568Z,5.99
2018-11-20T12:22:36.736Z,5.89
2018-11-20T12:31:25.645Z,5.98
2018-11-20T12:37:17.588Z,6.06
2018-11-20T12:40:35.288Z,6.06
2018-11-20T12:46:56.296Z,6.00
2018-11-20T12:49:44.662Z,6.00
2018-11-20T12:55:29.999Z,5.99
2018-11-20T12:58:18.436Z,5.97
2018-11-20T13:04:09.824Z,6.00
2018-11-20T13:10:25.228Z,6.01
2018-11-20T13:16:10.446Z,6.03
2018-11-20T13:22:25.106Z,5.99
2018-11-20T13:25:17.063Z,5.98
2018-11-20T13:31:02.177Z,5.91
2018-11-20T13:34:09.893Z,5.96
2018-11-20T13:36:58.256Z,5.95
2018-11-20T13:39:46.566Z,5.95
2018-11-20T13:42:29.634Z,5.99
2018-11-20T13:45:18.619Z,5.99
2018-11-20T13:48:25.478Z,5.97
2018-11-20T13:51:01.379Z,5.97
2018-11-20T13:56:46.695Z,5.97
2018-11-20T13:59:35.823Z,5.97
2018-11-20T14:02:27.802Z,5.94
2018-11-20T14:05:16.075Z,5.95
2018-11-20T14:08:05.016Z,5.91
2018-11-20T14:10:53.276Z,5.89
2018-11-20T14:13:41.553Z,5.89
2018-11-20T14:16:53.299Z,5.86
2018-11-20T14:22:47.872Z,5.81
2018-11-20T14:26:04.455Z,5.79
2018-11-20T14:28:52.837Z,5.77
2018-11-20T14:32:00.569Z,5.76
2018-11-20T14:34:48.921Z,5.72
2018-11-20T14:37:37.395Z,5.70
2018-11-20T14:40:29.408Z,5.59
2018-11-20T14:46:25.721Z,5.60
2018-11-20T14:49:13.963Z,5.52
2018-11-20T14:52:02.316Z,5.45
2018-11-20T14:55:10.080Z,5.40
2018-11-20T14:57:58.188Z,5.32
2018-11-20T15:00:46.309Z,5.27
2018-11-20T15:03:38.596Z,5.21
2018-11-20T15:12:13.573Z,5.01
2018-11-20T15:15:21.225Z,4.94
2018-11-20T15:18:09.477Z,4.87
2018-11-20T15:30:06.150Z,4.62
2018-11-20T15:32:54.551Z,4.55
2018-11-20T15:41:57.988Z,4.43
2018-11-20T15:50:59.198Z,4.28
2018-11-20T15:53:47.478Z,4.22
2018-11-20T15:56:35.854Z,4.16
2018-11-20T15:59:24.246Z,4.09
2018-11-20T16:02:12.558Z,4.02
2018-11-20T16:05:00.995Z,3.96
2018-11-20T16:14:15.815Z,3.81
2018-11-20T16:17:27.116Z,3.78
2018-11-20T16:20:16.032Z,3.75
2018-11-20T16:29:07.828Z,3.57
2018-11-20T16:31:56.325Z,3.51
2018-11-20T16:37:35.676Z,3.41
2018-11-20T16:40:25.032Z,3.34
2018-11-20T16:43:13.401Z,3.32
2018-11-20T16:46:01.703Z,3.25
2018-11-20T16:48:50.024Z,3.22
2018-11-20T16:51:38.746Z,3.19
2018-11-20T17:03:40.473Z,3.01
2018-11-20T17:06:29.816Z,2.97
2018-11-20T17:09:18.118Z,2.94
2018-11-20T17:12:06.380Z,2.91
2018-11-20T17:14:54.630Z,2.90
2018-11-20T17:26:31.762Z,2.72
2018-11-20T17:29:20.086Z,2.69
2018-11-20T17:32:09.095Z,2.63
2018-11-20T17:34:57.349Z,2.54
2018-11-20T17:38:05.049Z,2.50
2018-11-20T17:43:56.374Z,2.47
2018-11-20T17:46:42.997Z,2.46
2018-11-20T17:52:34.478Z,2.35
2018-11-20T17:55:22.818Z,2.30
2018-11-20T17:58:11.170Z,2.28
2018-11-20T18:00:59.459Z,2.27
2018-11-20T18:03:47.793Z,2.25
2018-11-20T18:13:04.993Z,2.13
2018-11-20T18:15:53.348Z,2.08
2018-11-20T18:19:01.022Z,2.06
2018-11-20T18:21:49.338Z,2.06
2018-11-20T18:24:37.596Z,2.05
2018-11-20T18:33:28.245Z,2.04
2018-11-20T18:36:19.831Z,2.04
2018-11-20T18:39:08.293Z,2.04
2018-11-20T18:41:56.775Z,2.04
2018-11-20T18:44:45.310Z,2.03
2018-11-20T18:47:33.787Z,2.04
2018-11-20T18:50:22.310Z,2.06
2018-11-20T18:53:10.816Z,2.07
2018-11-20T18:59:06.706Z,2.01
2018-11-20T19:04:58.415Z,1.99
2018-11-20T19:07:47.025Z,2.00
2018-11-20T19:10:35.598Z,2.00
2018-11-20T19:13:24.164Z,1.97
2018-11-20T19:16:12.749Z,1.95
2018-11-20T19:24:58.708Z,1.86
2018-11-20T19:33:54.660Z,1.78
2018-11-20T19:46:15.039Z,1.58
2018-11-20T19:49:03.763Z,1.53
2018-11-20T19:58:18.463Z,1.49
2018-11-20T20:04:10.992Z,1.40
2018-11-20T20:06:59.798Z,1.36
2018-11-20T20:09:48.444Z,1.32
2018-11-20T20:12:56.171Z,1.31
2018-11-20T20:15:44.793Z,1.29
2018-11-20T20:24:39.399Z,1.28
2018-11-20T20:27:31.082Z,1.26
2018-11-20T20:30:21.862Z,1.24
2018-11-20T20:33:13.309Z,1.23
2018-11-20T20:36:21.166Z,1.21
2018-11-20T20:48:26.085Z,1.23
2018-11-20T20:51:14.737Z,1.26
2018-11-20T20:54:22.882Z,1.25
2018-11-20T20:57:19.569Z,1.22
2018-11-20T21:06:11.302Z,1.21
2018-11-20T21:08:59.801Z,1.17
2018-11-20T21:11:48.374Z,1.18
2018-11-20T21:14:59.509Z,1.18
2018-11-20T21:17:48.022Z,1.20
2018-11-20T21:26:54.672Z,1.00
2018-11-20T21:29:32.875Z,0.91
2018-11-20T21:32:21.388Z,0.89
2018-11-20T21:35:09.923Z,0.90
2018-11-20T21:37:58.437Z,0.91
2018-11-20T21:40:47.088Z,0.86
2018-11-20T21:43:35.534Z,0.83
2018-11-20T21:46:57.081Z,0.78
2018-11-20T21:52:36.156Z,0.73
2018-11-20T21:55:22.186Z,0.69
2018-11-20T21:58:10.469Z,0.66
2018-11-20T22:01:02.599Z,0.61
2018-11-20T22:03:51.047Z,0.58
2018-11-20T22:06:39.473Z,0.58
2018-11-20T22:09:29.159Z,0.61
2018-11-20T22:21:14.830Z,0.64
2018-11-20T22:24:03.142Z,0.68
2018-11-20T22:27:06.600Z,0.66
2018-11-20T22:29:54.905Z,0.70
2018-11-20T22:32:43.192Z,0.73
2018-11-20T22:35:35.530Z,0.77
2018-11-20T22:41:30.085Z,0.82
2018-11-20T22:47:21.519Z,0.88
2018-11-20T22:53:13.508Z,0.96
2018-11-20T22:56:10.222Z,0.98
2018-11-20T22:58:56.894Z,0.99
2018-11-20T23:04:53.991Z,1.02
2018-11-20T23:13:36.453Z,1.01
2018-11-20T23:19:00.927Z,1.03
2018-11-20T23:21:30.576Z,1.05
2018-11-20T23:23:59.849Z,1.04
2018-11-20T23:26:29.183Z,1.05
2018-11-20T23:28:58.401Z,1.10
2018-11-20T23:34:15.893Z,1.09
2018-11-20T23:37:04.471Z,1.07
2018-11-20T23:39:33.809Z,1.09
2018-11-20T23:42:03.202Z,1.07
2018-11-20T23:45:12.280Z,1.08
2018-11-20T23:47:45.127Z,1.09
2018-11-20T23:50:33.876Z,1.04
2018-11-20T23:56:03.776Z,1.00
2018-11-20T23:58:33.067Z,1.00
